Vargeao, Brazil
Current Conditions -  °F | °C
As of 6:00 AM on Wednesday 22 Oct 2014 (Local Time) from SBCH Reporting Station
Clear Clear  
Wind Chill: 63°   Ceiling: Unl
Heat Index: 63°   Visibility: 6mi
Dew Point: 43°   Wind: 7mph
Humidity: 48%   Direction: 110°ESE
Pressure: 30.09"   Gusts: NA
Location:  26.86°S, 52.15°W
Report Text: SBCH 220800Z 11006KT CAVOK 17/06 Q1019
Loading
Personal Weather Stations






























Interactive Weather Map
Tropical Storm Tracking
New forecast layout! Learn more

10-Day Weather Forecast

Advertisements
Track Severe Weather on mobile